Orbital elements of ORBCOMM-X
| Launched | 16 July 1991 |
| Flight ended | – |
| Launch site | Europe's Spaceport, Kourou, French Guiana |
| Owner | ORBCOMM |
| NORAD ID | 21576 |
| Date fetched |
Epoch osculation |
Inc. [°] |
Ecc. | RA asc node [hr] |
Arg Peri. [°] |
Mean anom [°] |
Mean motion [rev/day] |
Abs. mag |
| Date fetched |
Epoch osculation |
Inc. [°] |
Ecc. | RA asc node [hr] |
Arg Peri. [°] |
Mean anom [°] |
Mean motion [rev/day] |
Abs. mag |
| 2026 May 04 17:57 | 2026 Apr 30 04:10:08 | 98.2983 | 0.00026 | 12.3096 | 323.5312 | 36.5701 | 14.43552 | – |
| 2026 May 03 17:57 | 2026 Apr 30 04:10:08 | 98.2983 | 0.00026 | 12.3096 | 323.5312 | 36.5701 | 14.43552 | – |
| 2026 May 02 17:57 | 2026 Apr 30 04:10:08 | 98.2983 | 0.00026 | 12.3096 | 323.5312 | 36.5701 | 14.43552 | – |
| 2026 May 01 17:56 | 2026 Apr 30 04:10:08 | 98.2983 | 0.00026 | 12.3096 | 323.5312 | 36.5701 | 14.43552 | – |
| 2026 Apr 30 17:56 | 2026 Apr 30 04:10:08 | 98.2983 | 0.00026 | 12.3096 | 323.5312 | 36.5701 | 14.43552 | – |
| 2026 Apr 29 17:57 | 2026 Apr 24 03:26:28 | 98.2990 | 0.00029 | 11.9177 | 346.3205 | 36.5701 | 14.43552 | – |
| 2026 Apr 28 17:56 | 2026 Apr 24 03:26:28 | 98.2990 | 0.00029 | 11.9177 | 346.3205 | 36.5701 | 14.43552 | – |
| 2026 Apr 27 17:58 | 2026 Apr 24 03:26:28 | 98.2990 | 0.00029 | 11.9177 | 346.3205 | 36.5701 | 14.43552 | – |
| 2026 Apr 26 17:58 | 2026 Apr 24 03:26:28 | 98.2990 | 0.00029 | 11.9177 | 346.3205 | 36.5701 | 14.43552 | – |
| 2026 Apr 25 17:58 | 2026 Apr 24 03:26:28 | 98.2990 | 0.00029 | 11.9177 | 346.3205 | 36.5701 | 14.43552 | – |
| 2026 Apr 24 17:59 | 2026 Apr 24 03:26:28 | 98.2990 | 0.00029 | 11.9177 | 346.3205 | 36.5701 | 14.43552 | – |
| 2026 Apr 23 17:57 | 2026 Apr 19 03:39:59 | 98.2997 | 0.00033 | 11.5933 | 2.6879 | 36.5701 | 14.43552 | – |
| 2026 Apr 22 17:57 | 2026 Apr 19 03:39:59 | 98.2997 | 0.00033 | 11.5933 | 2.6879 | 36.5701 | 14.43552 | – |
| 2026 Apr 21 17:57 | 2026 Apr 19 03:39:59 | 98.2997 | 0.00033 | 11.5933 | 2.6879 | 36.5701 | 14.43552 | – |
| 2026 Apr 20 17:57 | 2026 Apr 19 03:39:59 | 98.2997 | 0.00033 | 11.5933 | 2.6879 | 36.5701 | 14.43552 | – |
| 2026 Apr 19 17:58 | 2026 Apr 19 03:39:59 | 98.2997 | 0.00033 | 11.5933 | 2.6879 | 36.5701 | 14.43552 | – |
| 2026 Apr 18 17:56 | 2026 Apr 14 10:32:44 | 98.3003 | 0.00036 | 11.2869 | 16.6887 | 36.5701 | 14.43552 | – |
| 2026 Apr 16 17:57 | 2026 Apr 14 10:32:44 | 98.3003 | 0.00036 | 11.2869 | 16.6887 | 36.5701 | 14.43552 | – |
| 2026 Apr 14 17:57 | 2026 Apr 14 10:32:44 | 98.3003 | 0.00036 | 11.2869 | 16.6887 | 36.5701 | 14.43552 | – |
| 2026 Apr 13 17:57 | 2026 Apr 13 02:56:17 | 98.3005 | 0.00037 | 11.2013 | 20.2959 | 36.5701 | 14.43552 | – |
| 2026 Apr 12 17:57 | 2026 Apr 12 10:18:10 | 98.3007 | 0.00037 | 11.1562 | 22.3662 | 36.5701 | 14.43552 | – |
| 2026 Apr 11 17:57 | 2026 Apr 11 04:21:32 | 98.3009 | 0.00038 | 11.0751 | 25.6510 | 36.5701 | 14.43552 | – |
| 2026 Apr 10 17:58 | 2026 Apr 10 03:24:20 | 98.3010 | 0.00039 | 11.0075 | 28.0754 | 36.5701 | 14.43552 | – |
| 2026 Apr 09 18:01 | 2026 Apr 09 02:27:09 | 98.3011 | 0.00039 | 10.9399 | 30.7742 | 36.5701 | 14.43552 | – |
| 2026 Apr 08 17:57 | 2026 Apr 08 06:29:24 | 98.3012 | 0.00040 | 10.8858 | 32.8644 | 36.5701 | 14.43552 | – |
| 2026 Apr 07 17:57 | 2026 Apr 07 03:52:23 | 98.3013 | 0.00040 | 10.8137 | 35.6205 | 36.5701 | 14.43552 | – |